Pismo Beach, California
Current Conditions -  °F | °C
As of 1:56 PM on Tuesday 25 Nov 2014 (Local Time) from KSBP Reporting Station
Clear Clear  
Wind Chill: 79°   Ceiling: Unl
Heat Index: 79°   Visibility: 10mi
Dew Point: 25°   Wind: 7mph
Humidity: 14%   Direction: 310°NW
Pressure: 30.31"   Gusts: NA
Location:  35.16°N, 120.66°W
Report Text: KSBP 252156Z 31006KT 10SM CLR 26/M04 A3031 RMK AO2 SLP263 T02611039
Loading
Personal Weather Stations






























Interactive Weather Map New forecast layout! Learn more

10-Day Weather Forecast

Advertisements
Track Severe Weather on mobile